Time;durP1;ratioP1;P1;durP2;ratioP2;P2;SDS_P1;SDS_P2;PMS_P1;PMS_P2;Temp;Humidity;BMP_temperature;BMP_pressure;BME280_temperature;BME280_humidity;BME280_pressure;Samples;Min_cycle;Max_cycle;Signal;HPM_P1;HPM_P2
2022/03/31 00:00:52;;;;;;;23.17;8.82;;;;;;;12.78;97.44;-24173.81;5032259;28;20193;-73
2022/03/31 00:03:50;;;;;;;20.77;8.73;;;;;;;13.07;95.78;-24181.84;5032477;28;20737;-73
2022/03/31 00:06:17;;;;;;;25.23;9.30;;;;;;;12.99;95.06;-24179.59;5030794;28;20298;-71
2022/03/31 00:08:52;;;;;;;22.65;9.02;;;;;;;13.08;94.12;-24182.25;5032300;28;20198;-72
2022/03/31 00:11:47;;;;;;;23.10;9.07;;;;;;;13.08;91.24;-24182.13;5032816;28;20171;-72
2022/03/31 00:14:19;;;;;;;27.15;8.95;;;;;;;13.32;90.89;-24188.88;5032345;28;20262;-73
2022/03/31 00:16:47;;;;;;;22.05;9.02;;;;;;;13.17;93.31;-24184.66;5032257;28;20237;-71
2022/03/31 00:19:25;;;;;;;21.90;8.95;;;;;;;13.12;93.40;-24183.38;5032224;28;20199;-73
2022/03/31 00:22:32;;;;;;;28.48;8.82;;;;;;;13.03;93.84;-24180.84;5012852;28;20686;-72
2022/03/31 00:25:01;;;;;;;25.13;9.45;;;;;;;12.87;93.75;-24176.22;5032152;28;20775;-72
2022/03/31 00:27:41;;;;;;;17.23;8.07;;;;;;;13.01;93.09;-24180.16;5031964;28;20266;-75
2022/03/31 00:33:29;;;;;;;24.30;8.88;;;;;;;13.04;94.04;-24181.13;5030284;28;20573;-72
2022/03/31 00:35:54;;;;;;;21.15;8.85;;;;;;;13.09;94.56;-24182.41;5032112;28;20175;-72
2022/03/31 00:38:19;;;;;;;17.70;9.05;;;;;;;12.76;95.04;-24173.25;5032010;28;20171;-71
2022/03/31 00:40:45;;;;;;;22.63;8.98;;;;;;;12.91;96.19;-24177.34;5014506;28;20172;-71
2022/03/31 00:43:10;;;;;;;16.67;8.57;;;;;;;12.87;97.42;-24176.22;5031483;28;20191;-71
2022/03/31 00:45:46;;;;;;;19.80;8.65;;;;;;;12.59;96.41;-24168.47;5031896;28;20207;-72
2022/03/31 00:48:13;;;;;;;21.15;8.90;;;;;;;13.15;94.46;-24184.09;5031882;28;20619;-71
2022/03/31 00:50:39;;;;;;;17.67;8.98;;;;;;;12.92;96.48;-24177.75;5031729;28;20630;-71
2022/03/31 00:53:04;;;;;;;21.85;9.40;;;;;;;12.27;98.64;-24159.63;5031725;28;20171;-72
2022/03/31 00:55:30;;;;;;;22.50;9.07;;;;;;;12.66;98.46;-24170.59;5031947;28;20174;-72
2022/03/31 00:57:55;;;;;;;20.15;9.27;;;;;;;12.44;96.54;-24164.41;5013829;28;20195;-71
2022/03/31 01:00:22;;;;;;;22.33;9.18;;;;;;;12.81;98.06;-24174.66;5031851;28;20175;-72
2022/03/31 01:02:47;;;;;;;25.23;8.88;;;;;;;12.68;98.43;-24171.00;5031269;28;20187;-71
2022/03/31 01:05:16;;;;;;;22.67;8.57;;;;;;;12.65;96.31;-24170.16;5031121;28;20185;-71
2022/03/31 01:07:42;;;;;;;25.95;8.57;;;;;;;12.74;96.16;-24172.69;5031776;28;20206;-70
2022/03/31 01:10:09;;;;;;;23.83;9.13;;;;;;;12.91;98.13;-24177.34;5031153;28;20191;-69
2022/03/31 01:12:35;;;;;;;21.50;8.95;;;;;;;12.86;98.65;-24176.06;5031289;28;20207;-70
2022/03/31 01:15:13;;;;;;;18.52;9.05;;;;;;;12.59;100.00;-24168.63;5012933;28;20266;-70
2022/03/31 01:17:39;;;;;;;19.63;9.60;;;;;;;12.30;100.00;-24160.59;5031090;28;20185;-70
2022/03/31 01:20:08;;;;;;;22.88;9.18;;;;;;;12.01;100.00;-24152.28;5031217;28;20175;-70
2022/03/31 01:22:34;;;;;;;25.60;10.30;;;;;;;12.62;100.00;-24169.31;5031164;28;20202;-70
2022/03/31 01:25:02;;;;;;;18.08;9.35;;;;;;;12.23;100.00;-24158.50;5031378;28;20198;-70
2022/03/31 01:27:28;;;;;;;24.23;8.98;;;;;;;11.95;100.00;-24150.88;5031480;28;20266;-70
2022/03/31 01:29:54;;;;;;;19.40;9.30;;;;;;;11.97;100.00;-24151.31;5031125;28;20690;-70
2022/03/31 01:32:19;;;;;;;20.23;9.82;;;;;;;12.27;100.00;-24159.63;5031087;28;20168;-70
2022/03/31 01:34:46;;;;;;;20.27;9.02;;;;;;;12.27;100.00;-24159.63;5030916;28;20697;-71
2022/03/31 01:37:13;;;;;;;20.80;8.85;;;;;;;11.91;100.00;-24149.63;5031087;28;20221;-71
2022/03/31 01:39:38;;;;;;;22.63;8.95;;;;;;;11.99;100.00;-24151.88;5031026;28;20191;-70
2022/03/31 01:42:04;;;;;;;20.23;9.82;;;;;;;12.06;100.00;-24153.69;5030575;28;20271;-70
2022/03/31 01:44:30;;;;;;;19.80;9.23;;;;;;;11.90;100.00;-24149.34;5031001;28;20175;-71
2022/03/31 01:46:56;;;;;;;18.27;9.20;;;;;;;12.01;100.00;-24152.28;5031366;28;20192;-70
2022/03/31 01:49:22;;;;;;;19.67;9.00;;;;;;;12.00;100.00;-24152.16;5013526;28;20245;-71
2022/03/31 01:51:48;;;;;;;19.20;9.02;;;;;;;12.11;100.00;-24155.13;5031189;28;20179;-70
2022/03/31 01:54:20;;;;;;;22.70;9.65;;;;;;;11.98;100.00;-24151.59;5031101;28;20217;-70
2022/03/31 01:56:45;;;;;;;23.33;10.10;;;;;;;12.01;100.00;-24152.28;5031222;28;20168;-72
2022/03/31 01:59:11;;;;;;;25.45;9.88;;;;;;;11.87;100.00;-24148.50;5030830;28;20171;-70
2022/03/31 02:01:37;;;;;;;21.60;9.57;;;;;;;11.90;100.00;-24149.34;5031164;28;20168;-71
2022/03/31 02:04:05;;;;;;;25.47;9.43;;;;;;;11.81;100.00;-24146.81;5013494;28;20502;-73
2022/03/31 02:06:32;;;;;;;16.50;9.23;;;;;;;11.91;100.00;-24149.63;5030979;28;20241;-70
2022/03/31 02:09:00;;;;;;;20.03;9.23;;;;;;;11.86;100.00;-24148.22;5013128;28;20618;-71
2022/03/31 02:11:28;;;;;;;28.33;10.00;;;;;;;10.55;100.00;-24111.84;5031079;28;20176;-72
2022/03/31 02:13:56;;;;;;;24.87;9.73;;;;;;;11.83;100.00;-24147.38;5030640;28;20176;-71
2022/03/31 02:16:24;;;;;;;20.77;10.17;;;;;;;11.77;100.00;-24145.81;5031274;28;20190;-70
2022/03/31 02:18:53;;;;;;;19.13;9.83;;;;;;;11.69;100.00;-24143.41;5030893;28;20183;-72
2022/03/31 02:21:19;;;;;;;20.07;10.00;;;;;;;11.94;100.00;-24150.47;5031209;28;20620;-71
2022/03/31 02:23:47;;;;;;;18.80;10.00;;;;;;;11.74;100.00;-24144.84;5030799;28;20624;-70
2022/03/31 02:26:18;;;;;;;21.27;10.30;;;;;;;11.63;100.00;-24141.72;5030776;28;20229;-72
2022/03/31 02:28:44;;;;;;;23.93;11.17;;;;;;;11.21;100.00;-24130.03;5034481;28;20183;-71
2022/03/31 02:31:15;;;;;;;30.13;10.90;;;;;;;11.60;100.00;-24140.88;5034805;28;20167;-71
2022/03/31 02:33:45;;;;;;;25.27;9.93;;;;;;;11.27;100.00;-24131.88;5016389;28;20171;-71
2022/03/31 02:36:19;;;;;;;28.07;10.83;;;;;;;11.49;100.00;-24138.06;5033929;28;20183;-70
2022/03/31 02:38:49;;;;;;;23.90;10.37;;;;;;;11.63;100.00;-24141.72;5034460;28;20164;-71
2022/03/31 02:41:15;;;;;;;32.50;10.77;;;;;;;11.50;100.00;-24138.34;5034639;28;20195;-71
2022/03/31 02:43:42;;;;;;;24.30;10.20;;;;;;;11.64;100.00;-24142.16;5034279;28;20207;-71
2022/03/31 02:46:09;;;;;;;25.83;10.57;;;;;;;11.47;100.00;-24137.50;5034172;28;20183;-71
2022/03/31 02:48:36;;;;;;;28.47;10.90;;;;;;;11.52;100.00;-24138.91;5034139;28;20171;-71
2022/03/31 02:51:02;;;;;;;20.80;9.70;;;;;;;11.63;100.00;-24141.88;5034590;28;20209;-71
2022/03/31 02:56:33;;;;;;;23.30;10.53;;;;;;;11.51;100.00;-24138.63;5033986;28;20209;-70
2022/03/31 02:59:07;;;;;;;20.93;10.20;;;;;;;11.41;100.00;-24135.81;5033686;28;20241;-71
2022/03/31 03:01:33;;;;;;;20.33;10.10;;;;;;;11.35;100.00;-24134.13;5033662;28;20175;-71
2022/03/31 03:04:00;;;;;;;20.60;9.80;;;;;;;11.06;100.00;-24125.94;5033337;28;20171;-72
2022/03/31 03:06:26;;;;;;;20.97;10.30;;;;;;;11.64;100.00;-24142.16;5033577;28;20326;-72
2022/03/31 03:08:51;;;;;;;23.63;10.20;;;;;;;11.51;100.00;-24138.50;5033529;28;20251;-70
2022/03/31 03:11:19;;;;;;;24.80;10.47;;;;;;;11.52;100.00;-24138.91;5033330;28;20551;-70
2022/03/31 03:13:46;;;;;;;22.83;11.00;;;;;;;11.47;100.00;-24137.34;5033936;28;20179;-70
2022/03/31 03:16:12;;;;;;;27.73;10.73;;;;;;;10.98;100.00;-24123.84;5033799;28;20171;-72
2022/03/31 03:18:39;;;;;;;24.27;10.50;;;;;;;11.30;100.00;-24132.56;5016444;28;20191;-73
2022/03/31 03:21:06;;;;;;;26.93;10.83;;;;;;;11.20;100.00;-24129.75;5034149;28;20171;-71
2022/03/31 03:23:37;;;;;;;27.83;11.63;;;;;;;11.06;100.00;-24126.09;5036403;28;20219;-72
2022/03/31 03:26:03;;;;;;;31.07;11.20;;;;;;;11.23;100.00;-24130.75;5036505;28;20297;-70
2022/03/31 03:28:30;;;;;;;17.50;10.37;;;;;;;10.69;100.00;-24115.66;5037405;28;20190;-72
2022/03/31 03:30:56;;;;;;;28.10;10.93;;;;;;;10.75;100.00;-24117.19;5035826;28;20241;-70
2022/03/31 03:33:22;;;;;;;23.07;10.80;;;;;;;11.17;100.00;-24128.91;5035687;28;20179;-70
2022/03/31 03:35:48;;;;;;;24.07;10.90;;;;;;;11.22;100.00;-24130.31;5035141;28;20186;-70
2022/03/31 03:38:17;;;;;;;25.33;11.00;;;;;;;11.27;100.00;-24131.72;5035053;28;20571;-71
2022/03/31 03:40:43;;;;;;;30.23;11.10;;;;;;;11.29;100.00;-24132.44;5035971;28;20191;-71
2022/03/31 03:43:09;;;;;;;29.13;11.83;;;;;;;10.80;100.00;-24118.63;5033882;28;20216;-71
2022/03/31 03:45:36;;;;;;;29.43;10.97;;;;;;;10.57;100.00;-24112.25;5036193;28;20191;-69
2022/03/31 03:48:03;;;;;;;28.03;11.33;;;;;;;10.66;100.00;-24114.66;5034757;28;20176;-73
2022/03/31 03:50:29;;;;;;;28.03;10.70;;;;;;;10.67;100.00;-24114.94;5035169;28;20195;-70
2022/03/31 03:52:54;;;;;;;31.50;11.80;;;;;;;10.58;100.00;-24112.56;5035327;28;20198;-71
2022/03/31 03:55:23;;;;;;;26.27;11.63;;;;;;;11.26;100.00;-24131.59;5035800;28;20567;-70
2022/03/31 03:57:48;;;;;;;23.80;10.70;;;;;;;11.06;100.00;-24126.09;5034559;28;20196;-72
2022/03/31 04:00:14;;;;;;;32.77;11.60;;;;;;;11.32;100.00;-24133.13;5034726;28;20551;-72
2022/03/31 04:02:41;;;;;;;32.57;11.33;;;;;;;11.10;100.00;-24127.06;5035801;28;20296;-72
2022/03/31 04:05:07;;;;;;;23.57;10.43;;;;;;;10.78;100.00;-24118.03;5034212;28;20186;-71
2022/03/31 04:07:33;;;;;;;29.07;10.67;;;;;;;10.72;100.00;-24116.34;5035636;28;20231;-70
2022/03/31 04:09:58;;;;;;;23.37;10.33;;;;;;;10.90;100.00;-24121.56;5034866;28;20572;-72
2022/03/31 04:12:24;;;;;;;22.80;9.87;;;;;;;10.95;100.00;-24123.00;5034553;28;20289;-71
2022/03/31 04:14:49;;;;;;;19.80;10.17;;;;;;;11.33;100.00;-24133.41;5035116;28;20179;-70
2022/03/31 04:17:16;;;;;;;33.73;11.50;;;;;;;11.54;100.00;-24139.34;5016220;28;20322;-74
2022/03/31 04:19:43;;;;;;;22.50;11.07;;;;;;;11.55;100.00;-24139.63;5034207;28;20179;-73
2022/03/31 04:22:09;;;;;;;25.67;11.00;;;;;;;11.83;100.00;-24147.38;5032096;28;20199;-73
2022/03/31 04:24:35;;;;;;;28.87;11.37;;;;;;;11.82;100.00;-24147.09;5017482;28;20603;-73
2022/03/31 04:27:00;;;;;;;28.83;11.30;;;;;;;11.58;100.00;-24140.47;5016977;28;20274;-72
2022/03/31 04:29:26;;;;;;;33.80;11.77;;;;;;;11.09;100.00;-24126.78;5031563;28;20576;-73
2022/03/31 04:31:51;;;;;;;27.73;11.73;;;;;;;11.25;100.00;-24131.16;5033911;28;20190;-72
2022/03/31 04:34:19;;;;;;;32.57;12.47;;;;;;;11.18;100.00;-24129.19;5030197;28;20689;-71
2022/03/31 04:36:46;;;;;;;27.30;11.47;;;;;;;11.20;100.00;-24129.88;5012190;28;20191;-71
2022/03/31 04:39:12;;;;;;;30.70;11.93;;;;;;;11.51;100.00;-24138.50;5025685;28;20755;-71
2022/03/31 04:41:39;;;;;;;25.10;11.20;;;;;;;11.85;100.00;-24148.06;5019135;28;20670;-71
2022/03/31 04:44:04;;;;;;;24.57;11.20;;;;;;;11.79;100.00;-24146.38;5028370;28;20218;-71
2022/03/31 04:46:30;;;;;;;33.00;11.60;;;;;;;11.41;100.00;-24135.81;5028532;28;20183;-70
2022/03/31 04:48:55;;;;;;;31.87;12.03;;;;;;;11.72;100.00;-24144.41;5029255;28;20198;-72
2022/03/31 04:51:21;;;;;;;26.40;11.50;;;;;;;11.00;100.00;-24124.25;5029453;28;20183;-70
2022/03/31 04:53:46;;;;;;;24.83;12.43;;;;;;;11.12;100.00;-24127.50;5031032;28;20164;-71
2022/03/31 04:56:13;;;;;;;29.00;12.10;;;;;;;11.47;100.00;-24137.50;5013452;28;20172;-70
2022/03/31 04:58:39;;;;;;;37.33;12.33;;;;;;;11.27;100.00;-24131.88;5031001;28;20172;-71
2022/03/31 05:01:05;;;;;;;29.63;12.03;;;;;;;11.24;100.00;-24130.88;5030792;28;20169;-71
2022/03/31 05:03:30;;;;;;;26.08;12.32;;;;;;;11.39;100.00;-24135.25;5030851;28;20268;-70
2022/03/31 05:05:56;;;;;;;34.28;12.82;;;;;;;11.92;100.00;-24150.03;5014259;28;20242;-71
2022/03/31 05:08:21;;;;;;;35.05;12.50;;;;;;;12.05;100.00;-24153.41;5030173;28;20215;-71
2022/03/31 05:10:46;;;;;;;37.53;12.73;;;;;;;11.60;100.00;-24140.88;5028695;28;20194;-71
2022/03/31 05:13:12;;;;;;;33.17;12.15;;;;;;;11.82;100.00;-24147.09;5030626;28;20233;-71
2022/03/31 05:15:37;;;;;;;37.55;12.77;;;;;;;11.60;100.00;-24141.03;5030456;28;20218;-71
2022/03/31 05:18:03;;;;;;;31.40;12.70;;;;;;;11.66;100.00;-24142.72;5030243;28;20179;-71
2022/03/31 05:20:29;;;;;;;37.20;13.35;;;;;;;12.13;100.00;-24155.81;5031003;28;20190;-71
2022/03/31 05:22:54;;;;;;;35.17;12.88;;;;;;;11.63;100.00;-24141.88;5030664;28;20206;-71
2022/03/31 05:25:19;;;;;;;31.40;14.90;;;;;;;11.72;100.00;-24144.25;5030112;28;20201;-71
2022/03/31 05:27:46;;;;;;;46.03;14.68;;;;;;;11.93;100.00;-24150.19;5011718;28;20240;-73
2022/03/31 05:30:14;;;;;;;38.03;13.88;;;;;;;11.82;100.00;-24147.09;5029323;28;20175;-72
2022/03/31 05:32:40;;;;;;;28.20;13.63;;;;;;;11.51;100.00;-24138.63;5028980;28;20171;-70
2022/03/31 05:35:07;;;;;;;35.20;12.70;;;;;;;11.82;100.00;-24147.09;5028831;28;20558;-70
2022/03/31 05:37:33;;;;;;;39.17;15.07;;;;;;;10.44;100.00;-24108.59;5028104;28;20175;-70
2022/03/31 05:40:02;;;;;;;39.00;15.87;;;;;;;11.53;100.00;-24139.19;5009991;28;20639;-72
2022/03/31 05:42:28;;;;;;;42.45;15.07;;;;;;;11.56;100.00;-24139.91;5028030;28;20850;-70
2022/03/31 05:44:54;;;;;;;38.07;17.03;;;;;;;11.98;100.00;-24151.59;5028560;28;20175;-71
2022/03/31 05:47:19;;;;;;;49.10;22.23;;;;;;;11.90;100.00;-24149.34;5029036;28;20613;-70
2022/03/31 05:49:45;;;;;;;64.90;28.73;;;;;;;11.69;100.00;-24143.56;5030272;28;20171;-71
2022/03/31 05:52:10;;;;;;;65.18;28.88;;;;;;;11.96;100.00;-24151.03;5030823;28;20692;-70
2022/03/31 05:54:36;;;;;;;51.22;22.20;;;;;;;12.17;100.00;-24156.78;5030544;28;20623;-72
2022/03/31 05:57:02;;;;;;;45.95;22.77;;;;;;;12.04;100.00;-24153.13;5029696;28;20683;-71
2022/03/31 05:59:27;;;;;;;46.03;21.60;;;;;;;12.27;100.00;-24159.75;5030867;28;20224;-72
2022/03/31 06:01:53;;;;;;;65.60;29.55;;;;;;;12.04;100.00;-24153.28;5014332;28;20657;-72
2022/03/31 06:04:21;;;;;;;73.97;32.10;;;;;;;11.90;100.00;-24149.34;5034212;28;20627;-69
2022/03/31 06:06:48;;;;;;;73.65;34.38;;;;;;;12.07;100.00;-24154.00;5034536;28;20245;-70
2022/03/31 06:09:14;;;;;;;59.17;27.00;;;;;;;12.14;100.00;-24155.97;5034240;28;20214;-70
2022/03/31 06:11:40;;;;;;;54.00;24.05;;;;;;;12.02;100.00;-24152.72;5034187;28;20171;-71
2022/03/31 06:14:05;;;;;;;50.25;24.13;;;;;;;12.09;100.00;-24154.69;5016455;28;20190;-71
2022/03/31 06:16:31;;;;;;;48.22;22.67;;;;;;;12.22;100.00;-24158.22;5033483;28;20183;-71
2022/03/31 06:18:56;;;;;;;38.78;19.10;;;;;;;12.05;100.00;-24153.56;5033831;28;20178;-71
2022/03/31 06:21:22;;;;;;;38.38;16.25;;;;;;;11.93;100.00;-24150.31;5034349;28;20233;-71
2022/03/31 06:23:48;;;;;;;39.30;14.70;;;;;;;11.64;100.00;-24142.00;5015963;28;20571;-71
2022/03/31 06:26:13;;;;;;;33.40;13.82;;;;;;;10.96;100.00;-24123.13;5034175;28;20190;-70
2022/03/31 06:28:39;;;;;;;32.60;13.90;;;;;;;11.86;100.00;-24148.22;5033999;28;20183;-72
2022/03/31 06:31:05;;;;;;;37.10;13.70;;;;;;;11.59;100.00;-24140.75;5033018;28;20180;-72
2022/03/31 06:33:31;;;;;;;37.87;15.17;;;;;;;11.25;100.00;-24131.31;5015852;28;20190;-71
2022/03/31 06:35:56;;;;;;;44.23;16.53;;;;;;;11.40;100.00;-24135.53;5015703;28;20241;-72
2022/03/31 06:38:22;;;;;;;33.77;16.40;;;;;;;11.66;100.00;-24142.56;5015120;28;20187;-71
2022/03/31 06:41:06;;;;;;;45.13;16.40;;;;;;;11.46;100.00;-24137.22;5033035;28;20615;-70
2022/03/31 06:43:32;;;;;;;33.83;15.27;;;;;;;11.78;100.00;-24146.09;5033228;28;20653;-71
2022/03/31 06:45:58;;;;;;;34.87;13.93;;;;;;;11.88;100.00;-24148.91;5033501;28;20298;-72
2022/03/31 06:48:25;;;;;;;33.30;14.33;;;;;;;11.73;100.00;-24144.69;5033568;28;20258;-72
2022/03/31 06:50:52;;;;;;;33.80;15.00;;;;;;;12.22;100.00;-24158.22;5015540;28;20174;-71
2022/03/31 06:53:18;;;;;;;28.83;15.23;;;;;;;11.63;100.00;-24141.72;5035291;28;20182;-71
2022/03/31 06:55:44;;;;;;;48.13;15.30;;;;;;;11.71;100.00;-24144.13;5033159;28;20180;-72
2022/03/31 06:58:10;;;;;;;40.17;15.65;;;;;;;12.00;100.00;-24152.16;5032764;28;20225;-72
2022/03/31 07:00:36;;;;;;;31.42;14.40;;;;;;;12.50;100.00;-24166.09;5033179;28;20187;-71
2022/03/31 07:03:01;;;;;;;28.05;13.68;;;;;;;12.45;100.00;-24164.53;5015479;28;20214;-71
2022/03/31 07:05:27;;;;;;;32.42;14.18;;;;;;;12.61;100.00;-24169.03;5032622;28;20536;-71
2022/03/31 07:07:52;;;;;;;28.52;13.10;;;;;;;13.35;100.00;-24189.56;5032963;28;20179;-72
2022/03/31 07:10:18;;;;;;;38.75;12.82;;;;;;;13.75;100.00;-24200.66;5033357;28;20167;-73
2022/03/31 07:12:44;;;;;;;28.20;12.98;;;;;;;13.59;100.00;-24196.31;5032873;28;20198;-70
2022/03/31 07:15:10;;;;;;;38.50;12.68;;;;;;;14.16;97.74;-24212.16;5032453;28;20209;-74
2022/03/31 07:17:36;;;;;;;29.10;11.85;;;;;;;14.40;94.40;-24218.75;5031606;28;20183;-71
2022/03/31 07:20:04;;;;;;;30.77;11.75;;;;;;;14.82;93.89;-24230.53;5032581;28;20584;-72
2022/03/31 07:22:30;;;;;;;27.80;11.40;;;;;;;14.49;93.15;-24221.28;5032731;28;20290;-70
2022/03/31 07:24:55;;;;;;;29.42;10.95;;;;;;;14.94;92.86;-24233.91;5032611;28;20263;-73
2022/03/31 07:27:21;;;;;;;23.02;11.05;;;;;;;14.80;91.59;-24229.97;5014714;28;20271;-72
2022/03/31 07:29:47;;;;;;;31.15;11.68;;;;;;;15.33;89.90;-24244.56;5033090;28;20221;-73
2022/03/31 07:32:12;;;;;;;31.65;12.48;;;;;;;15.49;88.98;-24249.03;5015031;28;20172;-72
2022/03/31 07:34:39;;;;;;;23.98;11.80;;;;;;;15.51;86.66;-24249.47;5032519;28;20262;-72
2022/03/31 07:37:05;;;;;;;32.08;12.35;;;;;;;15.70;88.08;-24254.78;5032516;28;20178;-71
2022/03/31 07:39:31;;;;;;;30.85;12.45;;;;;;;15.35;87.29;-24245.25;5032691;28;20190;-70
2022/03/31 07:41:57;;;;;;;43.80;13.77;;;;;;;15.96;87.32;-24262.06;5032638;28;20230;-72
2022/03/31 07:44:22;;;;;;;32.22;12.25;;;;;;;16.33;85.30;-24272.41;5032841;28;20602;-71
2022/03/31 07:46:51;;;;;;;33.10;13.40;;;;;;;15.93;86.28;-24261.22;5032908;28;20232;-72
2022/03/31 07:49:17;;;;;;;42.13;13.27;;;;;;;15.93;86.07;-24261.06;5032069;28;20694;-72
2022/03/31 07:51:43;;;;;;;38.70;13.30;;;;;;;16.28;87.76;-24271.00;5031362;28;20164;-72
2022/03/31 07:54:08;;;;;;;36.42;12.68;;;;;;;16.64;84.43;-24280.78;5030841;28;20317;-70
2022/03/31 07:56:34;;;;;;;42.42;13.98;;;;;;;16.67;82.19;-24281.78;5030948;28;20682;-71
2022/03/31 07:58:59;;;;;;;36.80;13.38;;;;;;;16.78;81.49;-24284.69;5031724;28;20171;-70
2022/03/31 08:01:25;;;;;;;33.88;13.70;;;;;;;16.81;79.32;-24285.41;5032092;28;20182;-70
2022/03/31 08:03:52;;;;;;;34.53;11.80;;;;;;;16.98;81.80;-24290.16;5031770;28;20736;-72
2022/03/31 08:06:18;;;;;;;34.88;12.27;;;;;;;16.82;84.21;-24285.69;5031860;28;20224;-70
2022/03/31 08:08:43;;;;;;;37.05;12.23;;;;;;;16.83;84.12;-24285.97;5031718;28;20249;-72
2022/03/31 08:11:09;;;;;;;28.67;12.50;;;;;;;16.19;83.48;-24268.34;5032324;28;20194;-72
2022/03/31 08:13:34;;;;;;;28.60;11.85;;;;;;;16.33;83.57;-24272.41;5031987;28;20226;-71
2022/03/31 08:16:00;;;;;;;36.63;12.73;;;;;;;16.76;83.87;-24284.13;5031447;28;20172;-72
2022/03/31 08:18:28;;;;;;;30.30;11.95;;;;;;;17.16;81.35;-24295.31;5013801;28;20705;-72
2022/03/31 08:20:57;;;;;;;28.55;11.45;;;;;;;17.28;82.23;-24298.38;5030356;28;20201;-67
2022/03/31 08:23:23;;;;;;;35.15;11.25;;;;;;;17.06;84.48;-24292.38;5031283;28;20257;-68
2022/03/31 08:25:49;;;;;;;28.52;11.75;;;;;;;17.01;82.52;-24291.00;5030687;28;20222;-67
2022/03/31 08:28:14;;;;;;;24.23;10.25;;;;;;;17.12;95.57;-24294.06;5032436;28;20246;-66
2022/03/31 08:30:40;;;;;;;25.85;11.60;;;;;;;17.49;82.99;-24304.25;5014241;28;20186;-66
2022/03/31 08:33:05;;;;;;;31.75;12.00;;;;;;;16.83;84.16;-24285.97;5031794;28;20532;-67
2022/03/31 08:35:31;;;;;;;28.13;11.45;;;;;;;16.93;86.13;-24288.75;5031758;28;20600;-67
2022/03/31 08:37:56;;;;;;;26.55;12.25;;;;;;;16.96;84.07;-24289.59;5042828;28;20182;-68
2022/03/31 08:40:22;;;;;;;30.00;12.45;;;;;;;16.88;84.42;-24287.50;5052071;28;20615;-67
2022/03/31 08:42:47;;;;;;;36.85;12.65;;;;;;;17.12;82.66;-24294.06;5052051;28;20197;-67
2022/03/31 08:45:18;;;;;;;24.50;12.35;;;;;;;17.48;82.94;-24304.09;5052359;28;20618;-68
2022/03/31 08:47:46;;;;;;;36.90;12.50;;;;;;;17.74;82.66;-24311.09;5052025;28;20167;-66
2022/03/31 08:50:12;;;;;;;31.70;13.02;;;;;;;18.09;80.68;-24320.84;5034296;28;20186;-67
2022/03/31 08:52:37;;;;;;;29.65;14.13;;;;;;;17.43;81.07;-24302.56;5051854;28;20548;-68
2022/03/31 08:55:03;;;;;;;40.90;14.15;;;;;;;17.47;80.99;-24303.69;5051810;28;20661;-67
2022/03/31 08:57:41;;;;;;;35.78;13.50;;;;;;;17.54;80.91;-24305.63;5052066;28;20664;-66
2022/03/31 09:00:08;;;;;;;42.53;14.10;;;;;;;17.52;82.00;-24305.22;5051368;28;20162;-68
2022/03/31 09:02:34;;;;;;;30.48;13.15;;;;;;;17.44;81.89;-24302.84;5051326;28;20186;-68
2022/03/31 09:05:02;;;;;;;27.67;13.82;;;;;;;17.19;84.46;-24296.00;5051380;28;20178;-67
2022/03/31 09:07:27;;;;;;;35.83;14.40;;;;;;;17.17;86.95;-24295.44;5051320;28;20260;-67
2022/03/31 09:09:52;;;;;;;26.70;13.18;;;;;;;17.48;83.32;-24304.09;5051213;28;20213;-66
2022/03/31 09:12:18;;;;;;;33.97;13.70;;;;;;;17.40;84.35;-24301.72;5051638;28;20174;-65
2022/03/31 09:14:43;;;;;;;39.88;13.98;;;;;;;17.00;89.52;-24290.84;5051035;28;20310;-67
2022/03/31 09:17:14;;;;;;;36.70;14.32;;;;;;;17.30;86.33;-24299.09;5046085;28;20188;-67
2022/03/31 09:19:40;;;;;;;39.95;13.73;;;;;;;17.69;84.59;-24309.84;5017808;28;20499;-67
2022/03/31 09:22:06;;;;;;;27.70;13.60;;;;;;;17.67;83.16;-24309.41;5027369;28;20175;-67
2022/03/31 09:24:32;;;;;;;33.13;13.90;;;;;;;17.77;82.21;-24312.06;5031846;28;20171;-66
2022/03/31 09:27:00;;;;;;;31.15;13.05;;;;;;;18.68;80.55;-24337.00;5031469;28;20190;-68
2022/03/31 09:29:29;;;;;;;34.35;14.52;;;;;;;18.42;78.43;-24330.03;5031180;28;20186;-68
2022/03/31 09:32:12;;;;;;;30.05;13.68;;;;;;;18.45;77.73;-24330.75;5031354;28;20179;-68
2022/03/31 09:34:39;;;;;;;36.00;13.32;;;;;;;18.59;78.01;-24334.50;5031366;28;20167;-67
2022/03/31 09:37:05;;;;;;;33.20;12.90;;;;;;;18.12;78.69;-24321.53;5033133;28;20254;-68
2022/03/31 09:39:30;;;;;;;34.25;13.68;;;;;;;18.21;78.84;-24324.06;5034903;28;20164;-67
2022/03/31 09:41:56;;;;;;;26.70;13.88;;;;;;;18.45;79.03;-24330.75;5035865;28;20228;-67
2022/03/31 09:44:23;;;;;;;39.40;14.23;;;;;;;17.62;82.29;-24307.88;5035025;28;20549;-67
2022/03/31 09:46:49;;;;;;;38.17;13.93;;;;;;;18.20;82.42;-24323.78;5035133;28;20172;-67
2022/03/31 09:49:17;;;;;;;35.47;13.90;;;;;;;18.07;81.61;-24320.44;5035145;28;20176;-68
2022/03/31 09:51:46;;;;;;;35.83;14.00;;;;;;;18.50;81.33;-24332.13;5035118;28;20176;-67
2022/03/31 09:54:12;;;;;;;34.88;13.90;;;;;;;18.61;79.65;-24335.06;5034974;28;20189;-68
2022/03/31 09:56:41;;;;;;;33.13;13.68;;;;;;;18.91;76.92;-24343.41;5035288;28;20175;-68
2022/03/31 09:59:09;;;;;;;35.85;13.73;;;;;;;18.77;77.28;-24339.53;5034920;28;20206;-67
2022/03/31 10:01:36;;;;;;;32.35;12.95;;;;;;;19.13;79.69;-24349.53;5035031;28;20724;-67
2022/03/31 10:04:04;;;;;;;34.38;14.13;;;;;;;19.09;75.79;-24348.44;5034834;28;20231;-68
2022/03/31 10:06:33;;;;;;;31.23;12.70;;;;;;;19.31;75.16;-24354.41;5034594;28;20223;-67
2022/03/31 10:08:59;;;;;;;39.65;15.10;;;;;;;19.77;73.90;-24367.19;5035103;28;20186;-67
2022/03/31 10:11:28;;;;;;;28.88;12.23;;;;;;;20.22;72.44;-24379.44;5034843;28;20211;-68
2022/03/31 10:14:17;;;;;;;33.67;12.40;;;;;;;20.84;68.93;-24396.50;5035150;28;20171;-69
2022/03/31 10:16:47;;;;;;;31.63;12.75;;;;;;;20.57;67.85;-24389.00;4997250;28;20195;-66
2022/03/31 10:19:28;;;;;;;39.20;13.10;;;;;;;20.71;68.31;-24392.91;5036463;28;20178;-68
2022/03/31 10:25:00;;;;;;;34.83;12.40;;;;;;;21.62;64.22;-24417.84;4993677;28;20195;-67
2022/03/31 10:27:31;;;;;;;27.25;12.70;;;;;;;21.84;61.79;-24423.94;5034386;28;20183;-67
2022/03/31 10:30:25;;;;;;;39.05;13.75;;;;;;;21.68;61.81;-24419.38;5034546;28;20163;-68
2022/03/31 10:33:02;;;;;;;32.75;12.73;;;;;;;20.94;63.43;-24399.16;5039946;28;20202;-69
2022/03/31 10:35:32;;;;;;;36.85;12.50;;;;;;;21.33;62.58;-24409.97;5018791;28;20190;-69
2022/03/31 10:38:10;;;;;;;34.50;11.57;;;;;;;20.99;62.95;-24400.66;5033956;28;20620;-69
2022/03/31 10:40:42;;;;;;;29.25;11.02;;;;;;;21.50;61.51;-24414.53;5034418;28;20228;-68
2022/03/31 10:43:21;;;;;;;39.72;11.13;;;;;;;21.80;58.96;-24422.72;5034684;28;20206;-68
2022/03/31 10:45:48;;;;;;;24.60;10.10;;;;;;;22.02;55.96;-24428.94;5034629;28;20187;-68
2022/03/31 10:48:23;;;;;;;32.88;9.85;;;;;;;21.84;56.20;-24423.81;5033527;28;20176;-67
2022/03/31 10:51:03;;;;;;;27.02;9.65;;;;;;;21.78;57.29;-24422.28;5016431;28;20232;-67
2022/03/31 10:53:39;;;;;;;36.72;10.88;;;;;;;21.73;58.74;-24420.78;5036254;28;20175;-67
2022/03/31 10:56:18;;;;;;;36.92;10.52;;;;;;;21.40;57.37;-24411.91;5038705;28;20182;-67
2022/03/31 10:58:45;;;;;;;28.17;9.15;;;;;;;21.11;59.51;-24404.00;5039596;28;20273;-68
2022/03/31 11:01:11;;;;;;;32.88;10.32;;;;;;;21.01;60.03;-24401.09;5034347;28;20314;-69
2022/03/31 11:03:37;;;;;;;38.45;10.02;;;;;;;21.10;56.90;-24403.56;5034176;28;20200;-67
2022/03/31 11:06:10;;;;;;;34.85;10.90;;;;;;;21.23;55.92;-24407.19;5033398;28;20227;-68
2022/03/31 11:08:46;;;;;;;32.30;9.90;;;;;;;20.18;57.99;-24378.31;5040841;28;20186;-68
2022/03/31 11:11:22;;;;;;;32.97;9.43;;;;;;;21.11;58.48;-24403.84;5035753;28;20183;-68
2022/03/31 11:13:49;;;;;;;40.55;10.35;;;;;;;21.14;57.38;-24404.84;5034184;28;20183;-67
2022/03/31 11:16:15;;;;;;;27.92;10.13;;;;;;;20.97;59.47;-24399.97;5033941;28;20718;-67
2022/03/31 11:18:54;;;;;;;33.05;9.05;;;;;;;21.06;58.89;-24402.47;5035560;28;20183;-67